createdAt,value
2022-11-15T00:00:16.287Z,4.50
2022-11-15T00:03:01.259Z,5.15
2022-11-15T00:05:46.257Z,4.80
2022-11-15T00:08:32.008Z,5.05
2022-11-15T00:11:16.982Z,5.15
2022-11-15T00:14:03.546Z,4.90
2022-11-15T00:16:48.476Z,5.25
2022-11-15T00:19:34.117Z,4.43
2022-11-15T00:22:19.153Z,4.90
2022-11-15T00:25:04.374Z,4.53
2022-11-15T00:27:49.491Z,4.30
2022-11-15T00:30:35.625Z,4.30
2022-11-15T00:33:20.746Z,4.20
2022-11-15T00:36:10.151Z,3.90
2022-11-15T00:38:54.974Z,4.40
2022-11-15T00:41:40.145Z,4.07
2022-11-15T00:44:24.958Z,4.50
2022-11-15T00:47:09.890Z,4.20
2022-11-15T00:49:54.541Z,4.32
2022-11-15T00:52:39.389Z,4.00
2022-11-15T00:55:24.038Z,4.13
2022-11-15T00:58:09.181Z,4.22
2022-11-15T01:00:54.426Z,4.00
2022-11-15T01:03:40.227Z,3.50
2022-11-15T01:06:24.939Z,3.65
2022-11-15T01:09:09.768Z,3.88
2022-11-15T01:11:54.517Z,4.40
2022-11-15T01:14:39.214Z,3.85
2022-11-15T01:17:24.091Z,3.80
2022-11-15T01:20:09.402Z,3.53
2022-11-15T01:22:54.167Z,3.88
2022-11-15T01:25:39.061Z,3.33
2022-11-15T01:28:23.678Z,3.92
2022-11-15T01:31:12.430Z,3.92
2022-11-15T01:33:57.668Z,3.30
2022-11-15T01:36:42.463Z,3.28
2022-11-15T01:39:27.648Z,3.25
2022-11-15T01:42:15.753Z,3.47
2022-11-15T01:45:00.608Z,3.20
2022-11-15T01:47:53.190Z,2.90
2022-11-15T01:50:38.544Z,3.20
2022-11-15T01:53:25.416Z,3.55
2022-11-15T01:56:12.898Z,3.30
2022-11-15T01:58:59.273Z,3.15
2022-11-15T02:01:44.205Z,3.50
2022-11-15T02:04:30.294Z,3.03
2022-11-15T02:07:19.516Z,3.28
2022-11-15T02:10:09.197Z,3.13
2022-11-15T02:12:54.246Z,3.10
2022-11-15T02:15:42.423Z,3.20
2022-11-15T02:18:35.043Z,3.45
2022-11-15T02:21:27.654Z,3.08
2022-11-15T02:24:12.387Z,2.90
2022-11-15T02:27:12.450Z,3.13
2022-11-15T02:30:16.089Z,4.03
2022-11-15T02:33:19.778Z,3.28
2022-11-15T02:36:12.471Z,3.55
2022-11-15T02:39:04.562Z,3.50
2022-11-15T02:41:56.289Z,3.45
2022-11-15T02:44:44.702Z,3.63
2022-11-15T02:47:30.930Z,3.92
2022-11-15T02:50:17.913Z,3.38
2022-11-15T02:53:03.816Z,3.33
2022-11-15T02:55:50.123Z,3.60
2022-11-15T02:58:35.209Z,3.13
2022-11-15T03:01:38.850Z,3.65
2022-11-15T03:04:26.598Z,4.13
2022-11-15T03:07:14.691Z,3.97
2022-11-15T03:10:18.804Z,3.88
2022-11-15T03:13:06.647Z,3.50
2022-11-15T03:15:59.422Z,3.42
2022-11-15T03:18:46.226Z,3.20
2022-11-15T03:21:32.004Z,4.03
2022-11-15T03:24:21.960Z,4.65
2022-11-15T03:27:11.217Z,3.45
2022-11-15T03:29:58.913Z,3.58
2022-11-15T03:33:04.041Z,3.47
2022-11-15T03:35:49.555Z,3.75
2022-11-15T03:38:35.947Z,3.60
2022-11-15T03:41:24.817Z,3.50
2022-11-15T03:44:17.499Z,3.47
2022-11-15T03:47:05.434Z,3.25
2022-11-15T03:50:05.560Z,3.08
2022-11-15T03:52:51.091Z,3.55
2022-11-15T03:55:35.916Z,3.83
2022-11-15T03:58:20.734Z,3.38
2022-11-15T04:01:05.651Z,3.72
2022-11-15T04:03:50.922Z,3.17
2022-11-15T04:06:35.932Z,3.58
2022-11-15T04:09:20.922Z,3.72
2022-11-15T04:12:05.689Z,3.53
2022-11-15T04:15:07.956Z,3.30
2022-11-15T04:17:54.073Z,3.92
2022-11-15T04:20:57.748Z,3.10
2022-11-15T04:24:01.664Z,3.60
2022-11-15T04:26:46.569Z,2.60
2022-11-15T04:29:37.418Z,3.08
2022-11-15T04:32:22.362Z,3.70
2022-11-15T04:35:07.510Z,3.05
2022-11-15T04:37:52.552Z,3.25
2022-11-15T04:40:37.886Z,3.28
2022-11-15T04:43:22.874Z,2.80
2022-11-15T04:46:07.620Z,3.72
2022-11-15T04:48:57.988Z,3.38
2022-11-15T04:51:43.147Z,3.45
2022-11-15T04:54:27.957Z,3.50
2022-11-15T04:57:12.839Z,3.10
2022-11-15T04:59:57.537Z,3.10
2022-11-15T05:03:07.437Z,2.92
2022-11-15T05:05:52.473Z,3.03
2022-11-15T05:08:37.198Z,2.88
2022-11-15T05:11:22.371Z,3.10
2022-11-15T05:14:07.466Z,4.88
2022-11-15T05:16:52.313Z,3.63
2022-11-15T05:19:37.988Z,3.38
2022-11-15T05:22:23.530Z,4.32
2022-11-15T05:25:08.833Z,3.40
2022-11-15T05:27:53.957Z,3.45
2022-11-15T05:30:38.900Z,3.50
2022-11-15T05:33:24.846Z,3.33
2022-11-15T05:36:28.520Z,3.60
2022-11-15T05:39:13.242Z,3.47
2022-11-15T05:42:02.450Z,4.03
2022-11-15T05:44:49.074Z,3.63
2022-11-15T05:47:36.379Z,3.40
2022-11-15T05:50:21.265Z,3.88
2022-11-15T05:53:06.387Z,4.75
2022-11-15T05:55:51.761Z,3.53
2022-11-15T05:58:37.657Z,4.15
2022-11-15T06:01:22.760Z,6.70
2022-11-15T06:04:07.585Z,4.90
2022-11-15T06:06:52.466Z,4.57
2022-11-15T06:09:37.629Z,5.93
2022-11-15T06:12:22.558Z,5.28
2022-11-15T06:15:07.671Z,4.95
2022-11-15T06:17:53.001Z,6.15
2022-11-15T06:20:38.141Z,4.85
2022-11-15T06:23:23.229Z,4.60
2022-11-15T06:26:08.219Z,4.40
2022-11-15T06:28:52.971Z,5.50
2022-11-15T06:31:37.830Z,4.38
2022-11-15T06:34:22.533Z,5.28
2022-11-15T06:37:07.448Z,5.93
2022-11-15T06:39:52.281Z,5.68
2022-11-15T06:42:37.089Z,6.25
2022-11-15T06:45:21.820Z,6.18
2022-11-15T06:48:06.883Z,6.40
2022-11-15T06:50:56.108Z,5.15
2022-11-15T06:53:40.814Z,6.22
2022-11-15T06:56:25.632Z,5.80
2022-11-15T06:59:10.509Z,7.53
2022-11-15T07:01:55.271Z,7.30
2022-11-15T07:04:40.072Z,6.38
2022-11-15T07:07:24.877Z,5.88
2022-11-15T07:10:09.940Z,6.22
2022-11-15T07:12:55.676Z,6.32
2022-11-15T07:15:40.920Z,6.10
2022-11-15T07:18:25.676Z,6.30
2022-11-15T07:21:11.427Z,5.93
2022-11-15T07:23:56.236Z,5.70
2022-11-15T07:26:40.980Z,6.00
2022-11-15T07:29:25.888Z,6.35
2022-11-15T07:32:10.719Z,8.02
2022-11-15T07:34:55.606Z,6.43
2022-11-15T07:37:40.334Z,6.47
2022-11-15T07:40:25.607Z,6.28
2022-11-15T07:43:13.325Z,6.43
2022-11-15T07:45:59.588Z,5.30
2022-11-15T07:48:45.533Z,4.60
2022-11-15T07:51:30.953Z,5.45
2022-11-15T07:54:15.833Z,4.45
2022-11-15T07:57:05.710Z,4.90
2022-11-15T07:59:52.489Z,5.15
2022-11-15T08:02:37.602Z,4.85
2022-11-15T08:05:22.938Z,5.20
2022-11-15T08:08:08.761Z,4.65
2022-11-15T08:10:53.592Z,4.30
2022-11-15T08:13:38.330Z,5.68
2022-11-15T08:16:23.225Z,4.70
2022-11-15T08:19:08.105Z,4.57
2022-11-15T08:21:52.837Z,4.80
2022-11-15T08:24:37.679Z,4.82
2022-11-15T08:27:23.303Z,5.35
2022-11-15T08:30:08.580Z,4.50
2022-11-15T08:32:54.233Z,5.10
2022-11-15T08:35:39.878Z,5.18
2022-11-15T08:38:24.807Z,4.90
2022-11-15T08:41:36.803Z,4.45
2022-11-15T08:44:21.812Z,4.78
2022-11-15T08:47:06.649Z,4.80
2022-11-15T08:49:51.413Z,5.30
2022-11-15T08:52:36.346Z,4.57
2022-11-15T08:55:24.587Z,4.45
2022-11-15T08:58:09.812Z,4.90
2022-11-15T09:00:54.903Z,4.50
2022-11-15T09:03:40.693Z,5.00
2022-11-15T09:06:25.543Z,4.55
2022-11-15T09:09:10.272Z,4.88
2022-11-15T09:12:01.031Z,4.40
2022-11-15T09:14:47.242Z,4.00
2022-11-15T09:17:32.189Z,4.38
2022-11-15T09:20:17.059Z,4.85
2022-11-15T09:23:02.152Z,5.03
2022-11-15T09:25:47.279Z,4.50
2022-11-15T09:28:32.352Z,4.35
2022-11-15T09:31:20.989Z,6.15
2022-11-15T09:34:06.724Z,4.63
2022-11-15T09:36:51.570Z,4.65
2022-11-15T09:39:37.013Z,5.25
2022-11-15T09:42:30.302Z,4.15
2022-11-15T09:45:21.751Z,4.95
2022-11-15T09:48:06.573Z,4.53
2022-11-15T09:51:15.054Z,6.10
2022-11-15T09:56:37.550Z,4.22
2022-11-15T09:59:12.856Z,6.40
2022-11-15T10:01:42.365Z,4.65
2022-11-15T10:04:11.812Z,3.85
2022-11-15T10:06:42.285Z,3.08
2022-11-15T10:09:22.535Z,3.13
2022-11-15T10:11:50.427Z,2.92
2022-11-15T10:14:19.608Z,3.63
2022-11-15T10:17:04.800Z,2.95
2022-11-15T10:19:49.796Z,2.70
2022-11-15T10:22:16.261Z,2.83
2022-11-15T10:24:43.637Z,2.08
2022-11-15T10:27:14.597Z,2.80
2022-11-15T10:29:59.046Z,2.20
2022-11-15T10:32:26.229Z,2.15
2022-11-15T10:34:52.718Z,2.17
2022-11-15T10:37:28.932Z,1.92
2022-11-15T10:40:15.795Z,1.65
2022-11-15T10:42:42.231Z,1.70
2022-11-15T10:45:24.541Z,1.48
2022-11-15T10:47:51.028Z,1.80
2022-11-15T10:50:31.733Z,2.15
2022-11-15T10:52:58.903Z,1.45
2022-11-15T10:55:28.225Z,1.60
2022-11-15T10:58:04.560Z,0.90
2022-11-15T11:00:33.120Z,1.10
2022-11-15T11:03:01.538Z,1.75
2022-11-15T11:05:27.910Z,1.33
2022-11-15T11:08:06.214Z,1.50
2022-11-15T11:10:51.186Z,1.80
2022-11-15T11:13:23.939Z,3.72
2022-11-15T11:16:00.827Z,1.80
2022-11-15T11:18:43.515Z,2.00
2022-11-15T11:21:19.181Z,1.70
2022-11-15T11:24:26.633Z,1.75
2022-11-15T11:29:50.114Z,1.48
2022-11-15T11:32:31.760Z,1.48
2022-11-15T11:35:01.144Z,1.10
2022-11-15T11:37:46.040Z,1.50
2022-11-15T11:40:31.192Z,1.50
2022-11-15T11:43:06.907Z,1.15
2022-11-15T11:45:52.388Z,1.20
2022-11-15T11:48:28.145Z,1.10
2022-11-15T11:50:57.632Z,1.08
2022-11-15T11:53:32.320Z,1.45
2022-11-15T11:55:59.748Z,1.08
2022-11-15T11:58:38.011Z,1.00
2022-11-15T12:01:19.408Z,0.90
2022-11-15T12:03:51.930Z,1.17
2022-11-15T12:06:23.874Z,1.20
2022-11-15T12:08:53.442Z,1.05
2022-11-15T12:11:22.805Z,0.90
2022-11-15T12:13:51.497Z,1.10
2022-11-15T12:16:17.804Z,0.95
2022-11-15T12:18:50.888Z,1.00
2022-11-15T12:21:17.186Z,1.15
2022-11-15T12:24:05.264Z,1.00
2022-11-15T12:26:51.941Z,1.02
2022-11-15T12:29:26.580Z,1.10
2022-11-15T12:31:56.593Z,1.30
2022-11-15T12:34:23.070Z,1.27
2022-11-15T12:36:50.465Z,1.00
2022-11-15T12:39:17.626Z,1.17
2022-11-15T12:41:45.462Z,1.30
2022-11-15T12:44:32.044Z,1.00
2022-11-15T12:46:58.377Z,0.90
2022-11-15T12:49:24.674Z,1.10
2022-11-15T12:51:51.837Z,1.60
2022-11-15T12:54:24.416Z,0.80
2022-11-15T12:57:09.174Z,1.50
2022-11-15T12:59:55.954Z,1.20
2022-11-15T13:02:34.063Z,1.40
2022-11-15T13:05:29.516Z,0.98
2022-11-15T13:07:57.241Z,1.05
2022-11-15T13:10:28.085Z,1.00
2022-11-15T13:12:56.216Z,1.27
2022-11-15T13:15:25.363Z,0.90
2022-11-15T13:17:52.535Z,0.82
2022-11-15T13:20:18.950Z,1.20
2022-11-15T13:23:01.808Z,1.17
2022-11-15T13:25:37.448Z,1.27
2022-11-15T13:28:12.080Z,0.93
2022-11-15T13:30:38.670Z,0.93
2022-11-15T13:33:15.401Z,0.85
2022-11-15T13:35:42.261Z,1.20
2022-11-15T13:38:19.657Z,1.58
2022-11-15T13:40:45.988Z,1.67
2022-11-15T13:43:38.682Z,1.20
2022-11-15T13:46:16.812Z,1.20
2022-11-15T13:48:43.918Z,1.05
2022-11-15T13:51:28.474Z,1.45
2022-11-15T13:53:56.937Z,1.10
2022-11-15T13:56:23.540Z,0.90
2022-11-15T13:58:49.878Z,1.38
2022-11-15T14:01:21.613Z,1.45
2022-11-15T14:03:50.046Z,1.60
2022-11-15T14:06:17.467Z,1.08
2022-11-15T14:08:59.378Z,1.95
2022-11-15T14:11:25.862Z,1.30
2022-11-15T14:14:10.288Z,1.38
2022-11-15T14:16:39.771Z,1.00
2022-11-15T14:19:06.737Z,1.40
2022-11-15T14:21:33.533Z,1.27
2022-11-15T14:24:22.068Z,0.80
2022-11-15T14:26:51.452Z,0.93
2022-11-15T14:29:24.328Z,1.10
2022-11-15T14:31:50.714Z,1.20
2022-11-15T14:34:17.085Z,1.55
2022-11-15T14:36:43.674Z,1.02
2022-11-15T14:39:10.188Z,0.93
2022-11-15T14:41:38.776Z,1.00
2022-11-15T14:44:05.836Z,1.17
2022-11-15T14:46:32.192Z,1.20
2022-11-15T14:48:58.622Z,0.80
2022-11-15T14:51:25.339Z,1.20
2022-11-15T14:53:52.006Z,1.17
2022-11-15T14:56:18.432Z,1.23
2022-11-15T14:58:45.819Z,1.10
2022-11-15T15:01:18.592Z,1.83
2022-11-15T15:03:45.151Z,1.37
2022-11-15T15:06:17.711Z,1.30
2022-11-15T15:08:44.820Z,1.05
2022-11-15T15:11:15.823Z,1.20
2022-11-15T15:13:42.160Z,1.15
2022-11-15T15:16:08.595Z,1.08
2022-11-15T15:18:34.924Z,1.00
2022-11-15T15:21:04.152Z,1.70
2022-11-15T15:23:31.972Z,1.30
2022-11-15T15:25:58.471Z,0.90
2022-11-15T15:28:26.665Z,1.48
2022-11-15T15:30:56.337Z,1.33
2022-11-15T15:33:22.645Z,1.05
2022-11-15T15:35:49.034Z,1.25
2022-11-15T15:38:16.374Z,1.23
2022-11-15T15:40:42.771Z,1.08
2022-11-15T15:43:10.136Z,1.02
2022-11-15T15:45:40.639Z,1.17
2022-11-15T15:48:07.054Z,1.30
2022-11-15T15:50:34.238Z,1.00
2022-11-15T15:53:01.677Z,1.52
2022-11-15T15:55:28.525Z,1.25
2022-11-15T15:57:55.164Z,2.67
2022-11-15T16:00:23.949Z,0.98
2022-11-15T16:02:50.331Z,1.27
2022-11-15T16:05:16.955Z,1.10
2022-11-15T16:07:44.214Z,1.58
2022-11-15T16:10:17.576Z,1.05
2022-11-15T16:12:44.508Z,1.08
2022-11-15T16:15:10.913Z,1.10
2022-11-15T16:17:41.967Z,1.63
2022-11-15T16:20:16.340Z,1.27
2022-11-15T16:22:42.700Z,1.50
2022-11-15T16:25:09.149Z,1.65
2022-11-15T16:27:35.478Z,1.33
2022-11-15T16:30:01.896Z,1.70
2022-11-15T16:32:28.236Z,1.63
2022-11-15T16:34:56.014Z,1.77
2022-11-15T16:37:23.399Z,1.20
2022-11-15T16:39:49.896Z,1.60
2022-11-15T16:42:16.328Z,1.48
2022-11-15T16:44:42.660Z,1.60
2022-11-15T16:47:20.011Z,2.67
2022-11-15T16:49:46.814Z,2.63
2022-11-15T16:52:15.507Z,2.80
2022-11-15T16:54:45.146Z,3.47
2022-11-15T16:57:11.455Z,2.83
2022-11-15T16:59:38.537Z,2.75
2022-11-15T17:02:05.891Z,2.60
2022-11-15T17:04:33.774Z,3.00
2022-11-15T17:07:00.228Z,3.00
2022-11-15T17:09:26.699Z,2.47
2022-11-15T17:11:53.382Z,2.33
2022-11-15T17:14:19.777Z,2.00
2022-11-15T17:16:46.258Z,1.80
2022-11-15T17:19:14.190Z,2.10
2022-11-15T17:21:41.113Z,2.13
2022-11-15T17:24:07.748Z,2.53
2022-11-15T17:26:39.166Z,2.22
2022-11-15T17:29:08.003Z,3.00
2022-11-15T17:31:37.796Z,3.30
2022-11-15T17:34:05.114Z,12.25
2022-11-15T17:36:31.495Z,13.57
2022-11-15T17:38:59.808Z,3.40
2022-11-15T17:41:26.807Z,3.13
2022-11-15T17:43:53.409Z,2.90
2022-11-15T17:46:21.024Z,9.80
2022-11-15T17:48:48.327Z,3.83
2022-11-15T17:51:15.938Z,3.22
2022-11-15T17:53:43.540Z,2.60
2022-11-15T17:56:11.332Z,6.80
2022-11-15T17:58:38.067Z,10.30
2022-11-15T18:01:24.917Z,14.75
2022-11-15T18:03:51.763Z,32.92
2022-11-15T18:06:18.943Z,24.40
2022-11-15T18:08:46.469Z,8.95
2022-11-15T18:11:14.086Z,6.00
2022-11-15T18:13:41.513Z,5.32
2022-11-15T18:16:10.003Z,3.63
2022-11-15T18:18:36.913Z,3.63
2022-11-15T18:21:07.559Z,4.40
2022-11-15T18:23:35.052Z,3.35
2022-11-15T18:26:02.135Z,3.38
2022-11-15T18:28:35.953Z,5.63
2022-11-15T18:31:03.345Z,5.95
2022-11-15T18:33:32.253Z,5.80
2022-11-15T18:36:03.355Z,6.25
2022-11-15T18:38:30.955Z,8.68
2022-11-15T18:41:06.513Z,6.55
2022-11-15T18:43:33.384Z,5.18
2022-11-15T18:46:08.889Z,5.30
2022-11-15T18:48:39.670Z,3.83
2022-11-15T18:51:07.012Z,4.22
2022-11-15T18:53:34.251Z,4.30
2022-11-15T18:56:02.072Z,4.82
2022-11-15T18:58:30.276Z,3.97
2022-11-15T19:01:04.089Z,3.70
2022-11-15T19:06:07.481Z,4.07
2022-11-15T19:08:35.649Z,3.75
2022-11-15T19:11:23.974Z,3.88
2022-11-15T19:13:57.384Z,5.18
2022-11-15T19:16:24.156Z,3.90
2022-11-15T19:18:57.744Z,3.40
2022-11-15T19:21:24.797Z,4.45
2022-11-15T19:23:52.939Z,4.72
2022-11-15T19:26:19.746Z,3.28
2022-11-15T19:28:50.169Z,3.25
2022-11-15T19:31:19.153Z,3.67
2022-11-15T19:33:45.937Z,2.55
2022-11-15T19:36:16.773Z,3.95
2022-11-15T19:38:43.367Z,3.80
2022-11-15T19:41:11.280Z,3.58
2022-11-15T19:43:37.838Z,3.40
2022-11-15T19:46:05.235Z,3.03
2022-11-15T19:48:32.246Z,3.47
2022-11-15T19:51:05.795Z,3.65
2022-11-15T19:53:35.326Z,3.63
2022-11-15T19:56:06.381Z,3.50
2022-11-15T19:58:34.560Z,4.25
2022-11-15T20:01:03.002Z,3.90
2022-11-15T20:03:30.637Z,7.20
2022-11-15T20:06:05.628Z,6.57
2022-11-15T20:08:32.777Z,4.43
2022-11-15T20:11:00.084Z,7.35
2022-11-15T20:13:26.773Z,12.02
2022-11-15T20:15:53.403Z,5.68
2022-11-15T20:18:20.417Z,5.22
2022-11-15T20:20:47.138Z,5.60
2022-11-15T20:23:13.816Z,6.97
2022-11-15T20:25:43.204Z,6.47
2022-11-15T20:28:11.162Z,4.50
2022-11-15T20:30:37.534Z,5.28
2022-11-15T20:33:03.903Z,3.92
2022-11-15T20:35:30.501Z,3.28
2022-11-15T20:37:56.884Z,3.17
2022-11-15T20:40:23.237Z,3.40
2022-11-15T20:42:52.445Z,2.38
2022-11-15T20:45:18.840Z,2.58
2022-11-15T20:47:45.392Z,2.70
2022-11-15T20:50:40.615Z,2.38
2022-11-15T20:52:58.251Z,2.38
2022-11-15T20:55:24.700Z,2.40
2022-11-15T20:57:51.141Z,2.42
2022-11-15T21:00:17.741Z,2.90
2022-11-15T21:02:44.186Z,2.40
2022-11-15T21:05:10.533Z,2.00
2022-11-15T21:07:36.988Z,1.80
2022-11-15T21:10:22.142Z,2.08
2022-11-15T21:12:48.511Z,1.92
2022-11-15T21:15:14.957Z,2.17
2022-11-15T21:17:41.587Z,2.28
2022-11-15T21:20:08.094Z,3.35
2022-11-15T21:22:34.477Z,2.50
2022-11-15T21:25:00.879Z,2.38
2022-11-15T21:27:27.343Z,3.28
2022-11-15T21:29:53.746Z,2.45
2022-11-15T21:32:20.206Z,2.20
2022-11-15T21:34:46.856Z,2.13
2022-11-15T21:37:13.233Z,2.28
2022-11-15T21:39:39.717Z,2.40
2022-11-15T21:42:06.171Z,5.40
2022-11-15T21:44:32.666Z,4.35
2022-11-15T21:46:59.188Z,2.75
2022-11-15T21:49:25.894Z,2.58
2022-11-15T21:51:52.265Z,2.40
2022-11-15T21:54:18.731Z,2.53
2022-11-15T21:56:45.191Z,2.65
2022-11-15T21:59:11.555Z,2.50
2022-11-15T22:01:56.544Z,2.92
2022-11-15T22:04:24.043Z,2.85
2022-11-15T22:06:50.926Z,2.60
2022-11-15T22:09:17.343Z,2.88
2022-11-15T22:11:43.764Z,3.05
2022-11-15T22:14:10.432Z,2.88
2022-11-15T22:16:37.775Z,4.30
2022-11-15T22:19:04.159Z,4.30
2022-11-15T22:21:30.611Z,3.53
2022-11-15T22:23:57.158Z,4.03
2022-11-15T22:26:24.262Z,3.40
2022-11-15T22:28:51.037Z,3.35
2022-11-15T22:31:17.497Z,3.65
2022-11-15T22:33:43.944Z,2.88
2022-11-15T22:36:10.940Z,2.72
2022-11-15T22:38:37.667Z,2.65
2022-11-15T22:41:04.195Z,2.40
2022-11-15T22:43:30.624Z,2.80
2022-11-15T22:45:58.260Z,2.28
2022-11-15T22:48:26.324Z,1.83
2022-11-15T22:50:52.767Z,2.08
2022-11-15T22:53:19.511Z,2.30
2022-11-15T22:55:53.227Z,2.38
2022-11-15T22:58:23.689Z,2.70
2022-11-15T23:00:51.052Z,1.90
2022-11-15T23:03:17.811Z,3.17
2022-11-15T23:05:44.216Z,2.55
2022-11-15T23:08:11.014Z,2.60
2022-11-15T23:10:56.618Z,2.25
2022-11-15T23:13:23.565Z,3.15
2022-11-15T23:16:09.172Z,2.60
2022-11-15T23:18:36.742Z,2.78
2022-11-15T23:21:10.920Z,2.03
2022-11-15T23:23:37.338Z,2.10
2022-11-15T23:26:03.758Z,2.30
2022-11-15T23:28:31.789Z,2.08
2022-11-15T23:31:24.390Z,2.30
2022-11-15T23:33:59.922Z,2.28
2022-11-15T23:36:26.948Z,2.00
2022-11-15T23:38:53.511Z,2.78
2022-11-15T23:41:20.152Z,2.53
2022-11-15T23:43:46.575Z,2.80
2022-11-15T23:46:13.094Z,3.45
2022-11-15T23:48:39.472Z,2.25
2022-11-15T23:51:05.995Z,2.60
2022-11-15T23:53:32.366Z,3.20
2022-11-15T23:56:03.346Z,2.33
2022-11-15T23:58:29.855Z,3.28
